Time;durP1;ratioP1;P1;durP2;ratioP2;P2;SDS_P1;SDS_P2;PMS_P1;PMS_P2;Temp;Humidity;BMP_temperature;BMP_pressure;BME280_temperature;BME280_humidity;BME280_pressure;Samples;Min_cycle;Max_cycle;Signal;HPM_P1;HPM_P2
2022/03/17 00:01:41;;;;;;;21.63;13.43;;;;;;;8.45;80.51;99507.22;5156098;27;20039;-93
2022/03/17 00:04:08;;;;;;;24.60;16.20;;;;;;;8.39;81.01;99501.94;5144221;27;20035;-92
2022/03/17 00:06:34;;;;;;;29.70;19.30;;;;;;;8.23;83.34;99514.41;5144770;27;20141;-94
2022/03/17 00:09:01;;;;;;;26.92;15.90;;;;;;;8.16;83.06;99516.22;5157510;27;20073;-95
2022/03/17 00:11:26;;;;;;;28.15;17.75;;;;;;;8.05;84.79;99512.75;5145759;27;20054;-94
2022/03/17 00:13:52;;;;;;;27.27;15.45;;;;;;;7.90;85.40;99502.22;5137151;27;20035;-94
2022/03/17 00:16:18;;;;;;;22.88;14.15;;;;;;;7.89;85.56;99506.63;5147648;27;20074;-94
2022/03/17 00:18:45;;;;;;;24.92;13.52;;;;;;;7.87;85.88;99515.47;5157638;27;20039;-96
2022/03/17 00:21:11;;;;;;;17.90;10.93;;;;;;;8.22;81.25;99499.41;5156001;27;20047;-94
2022/03/17 00:23:37;;;;;;;14.93;9.30;;;;;;;8.41;79.38;99482.53;5144000;27;20492;-94
2022/03/17 00:26:03;;;;;;;14.00;8.93;;;;;;;8.59;77.84;99500.06;5141900;27;20046;-94
2022/03/17 00:28:29;;;;;;;14.27;9.23;;;;;;;8.63;78.38;99511.50;5153209;27;20047;-93
2022/03/17 00:30:56;;;;;;;29.98;18.10;;;;;;;8.59;80.21;99500.06;5144865;27;20031;-94
2022/03/17 00:33:22;;;;;;;34.50;18.98;;;;;;;8.42;80.96;99492.25;5142541;27;20054;-94
2022/03/17 00:35:49;;;;;;;34.45;20.75;;;;;;;8.33;82.18;99491.41;5157089;27;20042;-95
2022/03/17 00:38:17;;;;;;;34.97;21.15;;;;;;;8.29;83.28;99506.44;5149437;27;20507;-94
2022/03/17 00:40:44;;;;;;;38.00;21.48;;;;;;;8.14;84.64;99510.03;5147037;27;20039;-95
2022/03/17 00:43:12;;;;;;;37.08;21.65;;;;;;;7.98;85.70;99496.00;5148416;27;20095;-94
2022/03/17 00:48:37;;;;;;;31.98;19.40;;;;;;;7.77;86.26;99496.09;5091925;27;20370;-93
2022/03/17 00:51:03;;;;;;;31.35;18.63;;;;;;;7.67;87.90;99489.06;5091850;28;20126;-93
2022/03/17 00:53:29;;;;;;;36.05;20.02;;;;;;;7.67;87.39;99497.00;5091842;28;20037;-94
2022/03/17 00:55:55;;;;;;;30.02;18.40;;;;;;;7.52;87.61;99476.75;5091792;28;20131;-95
2022/03/17 00:58:22;;;;;;;28.65;16.95;;;;;;;7.60;87.83;99485.56;5091419;28;20048;-93
2022/03/17 01:00:48;;;;;;;22.90;14.68;;;;;;;7.68;87.62;99488.19;5091297;28;20040;-93
2022/03/17 01:03:14;;;;;;;25.65;16.85;;;;;;;7.68;87.57;99493.50;5091884;28;20158;-94
2022/03/17 01:05:41;;;;;;;32.00;17.33;;;;;;;7.52;87.07;99459.13;5092058;28;20486;-94
2022/03/17 01:08:07;;;;;;;29.88;18.73;;;;;;;7.54;88.27;99461.75;5091774;28;20070;-93
2022/03/17 01:10:33;;;;;;;21.67;14.15;;;;;;;7.50;87.69;99460.00;5092061;28;20044;-94
2022/03/17 01:13:01;;;;;;;22.83;11.45;;;;;;;7.64;86.74;99481.16;5091304;28;20051;-95
2022/03/17 01:15:29;;;;;;;14.02;8.68;;;;;;;7.61;86.48;99480.28;5091559;28;20040;-94
2022/03/17 01:17:55;;;;;;;12.63;7.72;;;;;;;7.45;86.26;99452.09;5091882;28;20064;-93
2022/03/17 01:20:21;;;;;;;14.25;8.32;;;;;;;7.61;85.82;99469.69;5091500;28;20079;-94
2022/03/17 01:22:48;;;;;;;15.27;8.65;;;;;;;7.58;85.83;99472.31;5091671;28;20041;-94
2022/03/17 01:25:14;;;;;;;11.77;7.47;;;;;;;7.33;86.29;99442.44;5091552;28;20041;-93
2022/03/17 01:27:40;;;;;;;12.93;7.63;;;;;;;7.34;85.60;99432.72;5091508;28;20071;-93
2022/03/17 01:30:09;;;;;;;13.35;8.10;;;;;;;7.44;85.68;99458.28;5091032;28;20040;-94
2022/03/17 01:35:35;;;;;;;14.60;9.60;;;;;;;7.53;85.19;99460.03;5111909;27;20353;-93
2022/03/17 01:38:01;;;;;;;18.98;10.32;;;;;;;7.49;85.75;99453.84;5111866;28;20520;-93
2022/03/17 01:40:26;;;;;;;19.98;11.82;;;;;;;7.44;86.47;99460.03;5111896;28;20093;-94
2022/03/17 01:42:52;;;;;;;24.65;16.17;;;;;;;7.48;87.32;99462.69;5111739;28;20039;-92
2022/03/17 01:45:18;;;;;;;20.90;12.55;;;;;;;7.44;87.50;99452.09;5111905;28;20111;-94
2022/03/17 01:47:44;;;;;;;27.00;16.40;;;;;;;7.36;87.98;99447.72;5111805;28;20072;-93
2022/03/17 01:50:12;;;;;;;26.25;16.77;;;;;;;7.42;87.51;99452.13;5111761;28;20051;-94
2022/03/17 01:52:40;;;;;;;27.90;16.33;;;;;;;7.31;89.07;99456.56;5111803;28;20040;-93
2022/03/17 01:55:08;;;;;;;31.48;17.95;;;;;;;7.30;90.26;99468.03;5111713;28;20044;-93
2022/03/17 01:57:34;;;;;;;33.05;20.02;;;;;;;7.11;90.05;99441.63;5111589;28;20050;-93
2022/03/17 02:00:01;;;;;;;32.80;18.35;;;;;;;7.20;90.39;99465.41;5111636;28;20517;-92
2022/03/17 02:02:27;;;;;;;27.35;17.88;;;;;;;7.19;90.82;99468.03;5111651;28;20036;-93
2022/03/17 02:04:53;;;;;;;34.40;19.05;;;;;;;7.03;91.50;99461.03;5112118;28;20089;-95
2022/03/17 02:07:20;;;;;;;30.15;18.52;;;;;;;6.87;91.39;99439.00;5111627;28;20047;-93
2022/03/17 02:09:48;;;;;;;28.48;18.58;;;;;;;6.71;92.30;99433.75;5111474;28;20131;-95
2022/03/17 02:15:14;;;;;;;29.40;17.02;;;;;;;6.60;92.97;99437.28;5112077;27;20373;-95
2022/03/17 02:17:40;;;;;;;29.73;18.40;;;;;;;6.51;94.57;99444.31;5099069;28;20045;-94
2022/03/17 02:20:09;;;;;;;32.38;18.08;;;;;;;6.36;94.70;99423.19;5109529;28;20509;-93
2022/03/17 02:22:40;;;;;;;33.03;19.27;;;;;;;6.42;95.09;99432.84;5107357;28;20044;-93
2022/03/17 02:28:08;;;;;;;32.88;18.98;;;;;;;6.46;95.77;99439.91;5095917;27;20364;-93
2022/03/17 02:30:37;;;;;;;37.10;19.98;;;;;;;6.42;95.42;99441.69;5054853;28;20073;-93
2022/03/17 02:33:04;;;;;;;31.90;20.08;;;;;;;6.39;95.71;99452.22;5051681;28;20128;-93
2022/03/17 02:35:32;;;;;;;36.42;20.80;;;;;;;6.42;96.91;99454.91;5051631;28;20041;-94
2022/03/17 02:37:58;;;;;;;33.08;20.42;;;;;;;6.28;97.19;99443.44;5054164;28;20038;-94
2022/03/17 02:40:25;;;;;;;34.53;20.17;;;;;;;6.27;97.35;99434.63;5054888;28;20512;-93
2022/03/17 02:42:51;;;;;;;33.15;20.05;;;;;;;6.30;97.12;99437.25;5064262;28;20127;-93
2022/03/17 02:45:18;;;;;;;32.20;19.00;;;;;;;6.23;97.16;99421.44;5056621;28;20087;-94
2022/03/17 02:47:44;;;;;;;35.88;19.15;;;;;;;6.32;96.91;99442.56;5066532;28;20094;-93
2022/03/17 02:50:10;;;;;;;32.83;18.48;;;;;;;6.35;97.27;99443.44;5061853;28;20411;-93
2022/03/17 02:52:36;;;;;;;35.47;18.15;;;;;;;6.27;97.50;99432.00;5053456;28;20060;-94
2022/03/17 02:55:03;;;;;;;33.13;19.92;;;;;;;6.37;96.97;99448.72;5051868;28;20072;-93
2022/03/17 02:57:29;;;;;;;34.70;19.25;;;;;;;6.38;97.84;99447.84;5055972;28;20037;-94
2022/03/17 02:59:55;;;;;;;33.05;19.42;;;;;;;6.40;97.36;99445.19;5051020;28;20103;-94
2022/03/17 03:02:23;;;;;;;31.42;19.10;;;;;;;6.33;97.69;99434.63;5050854;28;20069;-94
2022/03/17 03:04:48;;;;;;;30.30;18.35;;;;;;;6.34;97.80;99417.03;5051066;28;20052;-93
2022/03/17 03:07:14;;;;;;;31.90;18.38;;;;;;;6.30;97.41;99418.78;5054864;28;20060;-94
2022/03/17 03:09:41;;;;;;;30.23;18.20;;;;;;;6.38;97.50;99426.72;5057813;28;20056;-93
2022/03/17 03:12:08;;;;;;;34.80;18.73;;;;;;;6.27;97.71;99407.34;5056710;28;20110;-93
2022/03/17 03:14:34;;;;;;;38.40;19.60;;;;;;;6.32;96.98;99406.44;5067469;28;20056;-93
2022/03/17 03:16:59;;;;;;;26.20;16.30;;;;;;;6.36;97.18;99408.22;5059488;28;20033;-94
2022/03/17 03:19:27;;;;;;;27.00;15.45;;;;;;;6.25;97.56;99402.06;5050723;28;20037;-93
2022/03/17 03:21:53;;;;;;;26.05;15.50;;;;;;;6.34;97.29;99417.03;5050897;28;20041;-93
2022/03/17 03:24:19;;;;;;;24.92;14.10;;;;;;;6.30;96.93;99417.91;5052017;28;20379;-93
2022/03/17 03:26:45;;;;;;;19.55;11.88;;;;;;;6.20;96.21;99389.72;5050247;28;20050;-94
2022/03/17 03:32:14;;;;;;;19.23;11.25;;;;;;;6.21;95.56;99399.41;5108724;27;20366;-94
2022/03/17 03:34:40;;;;;;;19.60;11.55;;;;;;;6.17;95.18;99394.13;5092796;28;20048;-93
2022/03/17 03:40:07;;;;;;;21.17;10.77;;;;;;;6.31;95.27;99409.09;5048289;28;20362;-94
2022/03/17 03:42:33;;;;;;;20.27;11.07;;;;;;;6.32;95.35;99400.28;5048146;28;20045;-93
2022/03/17 03:44:58;;;;;;;23.33;12.40;;;;;;;6.27;95.20;99395.00;5047886;28;20090;-93
2022/03/17 03:47:26;;;;;;;20.05;11.07;;;;;;;6.34;95.15;99403.81;5047704;28;20072;-94
2022/03/17 03:49:51;;;;;;;21.75;12.95;;;;;;;6.16;95.06;99373.00;5047789;28;20053;-94
2022/03/17 03:52:17;;;;;;;22.90;11.73;;;;;;;6.13;95.10;99370.34;5047935;28;20056;-93
2022/03/17 03:54:43;;;;;;;19.10;10.65;;;;;;;6.21;94.98;99388.84;5047866;28;20033;-94
2022/03/17 03:57:10;;;;;;;18.70;10.85;;;;;;;6.13;94.82;99383.56;5047732;28;20045;-94
2022/03/17 03:59:38;;;;;;;18.10;11.10;;;;;;;6.11;95.17;99386.19;5047628;28;20041;-93
2022/03/17 04:02:06;;;;;;;18.80;10.73;;;;;;;6.00;95.74;99379.16;5047885;28;20116;-93
2022/03/17 04:04:34;;;;;;;17.05;10.70;;;;;;;6.14;95.95;99399.41;5047844;28;20436;-93
2022/03/17 04:07:01;;;;;;;22.88;12.25;;;;;;;5.97;95.61;99383.53;5047738;28;20457;-92
2022/03/17 04:09:29;;;;;;;20.63;10.85;;;;;;;6.07;96.05;99394.09;5047972;28;20120;-95
2022/03/17 04:11:55;;;;;;;21.55;12.82;;;;;;;6.05;95.60;99395.84;5047611;28;20040;-94
2022/03/17 04:14:23;;;;;;;22.77;13.02;;;;;;;6.12;96.05;99408.22;5056834;28;20121;-92
2022/03/17 04:16:50;;;;;;;21.55;13.05;;;;;;;6.00;96.47;99385.28;5055843;28;20048;-93
2022/03/17 04:19:16;;;;;;;24.55;14.43;;;;;;;5.99;95.68;99394.09;5047686;28;20559;-92
2022/03/17 04:21:44;;;;;;;25.67;15.43;;;;;;;5.90;96.25;99379.09;5047503;28;20067;-94
2022/03/17 04:24:10;;;;;;;27.70;15.18;;;;;;;5.87;96.84;99373.81;5047420;28;20395;-93
2022/03/17 04:26:35;;;;;;;28.23;16.08;;;;;;;5.90;96.76;99383.50;5047494;28;20040;-93
2022/03/17 04:29:01;;;;;;;27.15;15.98;;;;;;;5.89;96.85;99384.38;5047266;28;20421;-94
2022/03/17 04:31:29;;;;;;;27.55;17.08;;;;;;;5.90;97.93;99397.59;5044790;28;20128;-94
2022/03/17 04:33:55;;;;;;;30.55;17.88;;;;;;;5.84;98.64;99394.94;5047279;28;20512;-93
2022/03/17 04:36:21;;;;;;;29.00;16.98;;;;;;;5.83;98.10;99387.88;5047137;28;20562;-93
2022/03/17 04:38:47;;;;;;;28.90;17.17;;;;;;;5.84;98.52;99392.28;5046822;28;20057;-94
2022/03/17 04:41:13;;;;;;;29.20;16.50;;;;;;;5.85;97.91;99398.44;5047314;28;20067;-93
2022/03/17 04:43:40;;;;;;;28.40;16.73;;;;;;;5.70;98.12;99383.44;5047402;28;20045;-93
2022/03/17 04:46:07;;;;;;;27.38;15.90;;;;;;;5.85;98.20;99412.50;5048119;28;20048;-94
2022/03/17 04:48:35;;;;;;;25.40;15.07;;;;;;;5.82;97.94;99409.88;5048758;28;20398;-93
2022/03/17 04:51:01;;;;;;;24.98;14.98;;;;;;;5.82;98.23;99409.00;5036809;28;20041;-93
2022/03/17 04:53:27;;;;;;;25.75;14.20;;;;;;;5.74;98.56;99401.06;5036408;28;20499;-94
2022/03/17 04:55:53;;;;;;;19.58;12.15;;;;;;;5.70;98.14;99381.72;5034871;28;20049;-93
2022/03/17 04:58:19;;;;;;;21.20;12.48;;;;;;;5.66;97.89;99381.66;5034714;28;20037;-94
2022/03/17 05:00:46;;;;;;;23.25;13.05;;;;;;;5.64;97.96;99383.44;5034780;28;20495;-93
2022/03/17 05:03:12;;;;;;;24.27;14.20;;;;;;;5.71;98.25;99391.38;5034929;28;20056;-93
2022/03/17 05:05:39;;;;;;;26.20;14.77;;;;;;;5.65;98.24;99379.94;5034732;28;20041;-94
2022/03/17 05:08:06;;;;;;;27.85;14.63;;;;;;;5.69;98.63;99393.13;5035007;28;20120;-93
2022/03/17 05:10:35;;;;;;;28.88;15.23;;;;;;;5.54;98.25;99375.50;5035069;28;20045;-92
2022/03/17 05:13:03;;;;;;;25.92;15.10;;;;;;;5.53;98.56;99375.47;5035357;28;20057;-93
2022/03/17 05:15:28;;;;;;;28.23;15.85;;;;;;;5.70;99.25;99404.56;5034782;28;20050;-90
2022/03/17 05:17:54;;;;;;;27.65;15.10;;;;;;;5.65;98.28;99390.47;5034099;28;20074;-93
2022/03/17 05:20:21;;;;;;;28.58;15.35;;;;;;;5.63;98.64;99398.38;5034842;28;20045;-94
2022/03/17 05:22:49;;;;;;;26.63;15.38;;;;;;;5.61;98.81;99412.44;5035697;28;20049;-92
2022/03/17 05:25:15;;;;;;;27.33;16.20;;;;;;;5.54;99.47;99401.00;5035482;28;20388;-94
2022/03/17 05:27:42;;;;;;;32.28;18.05;;;;;;;5.55;99.51;99413.28;5035455;28;20052;-94
2022/03/17 05:30:09;;;;;;;33.15;18.40;;;;;;;5.66;100.00;99429.16;5035398;28;20049;-93
2022/03/17 05:32:35;;;;;;;34.70;18.23;;;;;;;5.53;99.43;99418.59;5083972;27;20043;-93
2022/03/17 05:35:01;;;;;;;31.83;18.55;;;;;;;5.51;100.00;99414.19;5111624;27;20125;-93
2022/03/17 05:37:27;;;;;;;34.58;19.73;;;;;;;5.63;99.13;99424.78;5034286;28;20045;-93
2022/03/17 05:39:54;;;;;;;31.85;18.65;;;;;;;5.56;99.41;99415.94;5034323;28;20102;-93
2022/03/17 05:42:20;;;;;;;33.00;18.40;;;;;;;5.71;99.93;99441.50;5034789;28;20525;-92
2022/03/17 05:44:46;;;;;;;31.35;17.30;;;;;;;5.82;99.66;99445.94;5034932;28;20041;-94
2022/03/17 05:47:12;;;;;;;29.40;16.60;;;;;;;5.87;99.04;99444.19;5034940;28;20071;-93
2022/03/17 05:49:38;;;;;;;29.52;16.40;;;;;;;5.87;98.59;99433.63;5033940;28;20049;-91
2022/03/17 05:52:04;;;;;;;30.95;16.95;;;;;;;5.95;98.36;99438.09;5035863;28;20052;-92
2022/03/17 05:54:30;;;;;;;28.23;16.60;;;;;;;6.15;98.07;99464.53;5036953;28;20071;-94
2022/03/17 05:56:57;;;;;;;29.08;15.55;;;;;;;6.14;97.21;99446.06;5033726;28;20490;-94
2022/03/17 05:59:23;;;;;;;28.27;15.30;;;;;;;6.30;96.82;99452.22;5033823;28;20042;-94
2022/03/17 06:01:49;;;;;;;26.67;15.70;;;;;;;6.35;95.82;99461.94;5032358;28;20067;-93
2022/03/17 06:04:14;;;;;;;28.83;15.82;;;;;;;6.36;96.35;99453.13;5033537;28;20037;-94
2022/03/17 06:06:40;;;;;;;26.52;15.75;;;;;;;6.48;95.91;99460.16;5033456;28;20050;-95
2022/03/17 06:09:06;;;;;;;26.83;15.45;;;;;;;6.66;95.73;99474.25;5033175;28;20370;-94
2022/03/17 06:11:32;;;;;;;25.40;16.25;;;;;;;6.73;94.98;99468.13;5032813;28;20502;-95
2022/03/17 06:14:00;;;;;;;30.88;18.30;;;;;;;6.88;94.65;99480.44;5033172;28;20041;-93
2022/03/17 06:16:26;;;;;;;32.88;18.38;;;;;;;7.00;93.52;99475.13;5032788;28;20049;-94
2022/03/17 06:18:52;;;;;;;39.53;19.67;;;;;;;7.07;92.63;99471.59;5033196;28;20480;-93
2022/03/17 06:21:18;;;;;;;28.98;17.67;;;;;;;7.14;92.06;99461.91;5032948;28;20041;-92
2022/03/17 06:23:44;;;;;;;33.42;17.85;;;;;;;7.09;91.44;99447.78;5033202;28;20073;-93
2022/03/17 06:26:10;;;;;;;31.02;18.77;;;;;;;7.32;91.48;99463.59;5032259;28;20053;-93
2022/03/17 06:28:36;;;;;;;32.17;17.55;;;;;;;7.36;91.27;99473.31;5032017;28;20144;-94
2022/03/17 06:31:03;;;;;;;29.23;18.55;;;;;;;7.46;90.66;99475.03;5032329;28;20128;-93
2022/03/17 06:33:30;;;;;;;32.22;18.52;;;;;;;7.52;90.18;99475.00;5032278;28;20049;-94
2022/03/17 06:35:56;;;;;;;32.13;18.25;;;;;;;7.58;90.02;99474.97;5032714;28;20046;-93
2022/03/17 06:38:22;;;;;;;34.25;19.67;;;;;;;7.78;89.37;99493.41;5032590;28;20102;-94
2022/03/17 06:40:48;;;;;;;36.65;20.88;;;;;;;7.87;88.98;99496.94;5031864;28;20041;-91
2022/03/17 06:43:15;;;;;;;38.38;20.75;;;;;;;7.87;87.93;99486.34;5032217;28;20049;-94
2022/03/17 06:45:41;;;;;;;38.17;22.33;;;;;;;7.88;87.73;99467.78;5033576;28;20111;-95
2022/03/17 06:48:08;;;;;;;32.22;21.27;;;;;;;7.95;87.32;99472.16;5034027;28;20069;-96
2022/03/17 06:50:34;;;;;;;36.75;20.48;;;;;;;7.98;86.57;99480.13;5033934;28;20048;-95
2022/03/17 06:53:00;;;;;;;36.00;21.25;;;;;;;8.06;86.59;99477.41;5033316;28;20057;-94
2022/03/17 06:55:27;;;;;;;28.63;18.17;;;;;;;8.16;86.22;99470.31;5032921;28;20042;-96
2022/03/17 06:57:53;;;;;;;30.48;18.27;;;;;;;8.34;84.15;99474.59;5033213;28;20052;-94
2022/03/17 07:00:20;;;;;;;16.67;10.35;;;;;;;8.68;79.14;99485.88;5034435;28;20046;-95
2022/03/17 07:02:46;;;;;;;17.90;9.20;;;;;;;8.94;76.39;99458.25;5035049;28;20042;-94
2022/03/17 07:05:14;;;;;;;15.45;8.43;;;;;;;9.28;73.21;99465.84;5035399;28;20042;-96
2022/03/17 07:07:42;;;;;;;12.40;8.68;;;;;;;9.51;71.38;99469.13;5043390;28;20049;-94
2022/03/17 07:10:11;;;;;;;11.00;7.93;;;;;;;9.71;71.14;99460.06;5039790;28;20081;-95
2022/03/17 07:12:38;;;;;;;12.50;7.13;;;;;;;9.92;69.56;99472.19;5038785;28;20053;-96
2022/03/17 07:15:05;;;;;;;13.70;7.55;;;;;;;9.93;69.32;99465.97;5041284;28;20045;-95
2022/03/17 07:17:36;;;;;;;14.20;7.40;;;;;;;10.07;68.98;99467.53;5040241;28;20139;-96
2022/03/17 07:20:04;;;;;;;10.63;7.43;;;;;;;10.17;67.58;99473.63;5038720;28;20045;-96
2022/03/17 07:22:32;;;;;;;11.73;6.65;;;;;;;10.26;67.51;99464.63;5039818;28;20059;-96
2022/03/17 07:24:58;;;;;;;12.02;6.63;;;;;;;10.61;66.34;99489.84;5039593;28;20038;-96
2022/03/17 07:27:24;;;;;;;10.48;6.78;;;;;;;10.53;66.01;99454.50;5039745;28;20099;-95
2022/03/17 07:29:53;;;;;;;12.65;7.32;;;;;;;10.55;65.64;99460.69;5038086;28;20042;-94
2022/03/17 07:32:20;;;;;;;12.23;7.50;;;;;;;10.63;65.76;99466.75;5040638;28;20046;-94
2022/03/17 07:34:46;;;;;;;13.23;7.30;;;;;;;10.74;65.42;99459.47;5038328;28;20056;-95
2022/03/17 07:37:12;;;;;;;11.77;6.55;;;;;;;10.85;64.68;99454.84;5038337;28;20121;-95
2022/03/17 07:39:40;;;;;;;13.20;7.07;;;;;;;11.21;63.60;99472.84;5036538;28;20061;-95
2022/03/17 07:42:07;;;;;;;11.35;6.95;;;;;;;11.24;63.82;99491.44;5039743;28;20045;-95
2022/03/17 07:44:35;;;;;;;13.00;6.95;;;;;;;11.09;63.56;99479.28;5036841;28;20098;-95
2022/03/17 07:47:01;;;;;;;10.02;6.85;;;;;;;11.29;62.81;99476.25;5037150;28;20054;-94
2022/03/17 07:49:28;;;;;;;14.07;7.65;;;;;;;11.19;62.54;99448.94;5036160;28;20042;-92
2022/03/17 07:51:54;;;;;;;12.98;7.40;;;;;;;11.04;63.28;99455.41;5037055;28;20049;-95
2022/03/17 07:54:20;;;;;;;9.85;6.82;;;;;;;11.17;63.44;99441.84;5036534;28;20135;-96
2022/03/17 07:56:48;;;;;;;14.30;8.23;;;;;;;11.21;63.37;99449.78;5036188;28;20041;-94
2022/03/17 07:59:16;;;;;;;12.80;7.28;;;;;;;11.24;63.22;99438.19;5036235;28;20042;-95
2022/03/17 08:01:42;;;;;;;12.52;7.18;;;;;;;11.41;62.62;99440.53;5038874;28;20050;-95
2022/03/17 08:04:08;;;;;;;11.30;6.47;;;;;;;11.76;61.42;99469.13;5036775;28;20050;-94
2022/03/17 08:06:35;;;;;;;12.82;7.82;;;;;;;11.47;62.09;99462.59;5038464;28;20102;-95
2022/03/17 08:09:01;;;;;;;14.05;6.97;;;;;;;11.65;61.92;99456.00;5038967;28;20049;-96
2022/03/17 08:11:27;;;;;;;11.85;7.20;;;;;;;11.76;61.96;99458.44;5040583;28;20136;-96
2022/03/17 08:13:55;;;;;;;9.73;6.80;;;;;;;11.97;60.92;99458.91;5039117;28;20080;-96
2022/03/17 08:16:22;;;;;;;10.60;6.53;;;;;;;12.13;61.03;99490.56;5038761;28;20366;-95
2022/03/17 08:18:49;;;;;;;11.32;7.20;;;;;;;11.87;61.52;99460.88;5041572;28;20045;-95
2022/03/17 08:21:15;;;;;;;12.80;8.07;;;;;;;12.17;60.37;99466.50;5036220;28;20041;-96
2022/03/17 08:23:41;;;;;;;9.45;6.70;;;;;;;12.27;59.84;99460.94;5036670;28;20069;-95
2022/03/17 08:26:07;;;;;;;13.13;7.22;;;;;;;12.09;60.41;99456.88;5040463;28;20045;-96
2022/03/17 08:28:34;;;;;;;13.40;7.40;;;;;;;12.19;60.18;99456.66;5042718;28;20122;-96
2022/03/17 08:31:02;;;;;;;12.32;6.78;;;;;;;12.47;60.26;99452.47;5041906;28;20117;-95
2022/03/17 08:33:28;;;;;;;12.63;7.20;;;;;;;12.41;60.33;99455.25;5043846;28;20132;-96
2022/03/17 08:35:54;;;;;;;10.55;7.00;;;;;;;12.45;60.27;99448.94;5042154;28;20124;-95
2022/03/17 08:38:20;;;;;;;12.25;7.28;;;;;;;12.79;59.07;99452.56;5042047;28;20072;-96
2022/03/17 08:40:51;;;;;;;11.38;7.65;;;;;;;12.99;58.67;99452.97;5040781;28;20045;-96
2022/03/17 08:43:17;;;;;;;14.25;7.53;;;;;;;13.12;58.63;99451.72;5044730;28;20085;-96
2022/03/17 08:51:54;;;;;;;12.55;8.18;;;;;;;13.31;58.27;99456.56;5141212;27;20385;-95
2022/03/17 08:54:22;;;;;;;15.40;8.15;;;;;;;13.13;58.23;99441.91;5143186;28;20050;-96
2022/03/17 08:56:48;;;;;;;13.35;8.07;;;;;;;13.10;58.61;99458.88;5141302;28;20036;-95
2022/03/17 08:59:18;;;;;;;14.10;7.78;;;;;;;13.19;58.66;99448.88;5144924;28;20074;-96
2022/03/17 09:01:49;;;;;;;12.43;7.72;;;;;;;13.40;58.54;99445.63;5147712;28;20074;-96
2022/03/17 09:04:15;;;;;;;12.25;7.38;;;;;;;13.56;57.74;99468.34;5141856;27;20040;-95
2022/03/17 09:06:45;;;;;;;13.13;8.07;;;;;;;13.47;58.62;99470.41;5149557;27;20043;-96
2022/03/17 09:09:12;;;;;;;13.38;7.65;;;;;;;13.95;56.62;99444.06;5146156;28;20051;-96
2022/03/17 09:11:39;;;;;;;10.68;7.65;;;;;;;14.32;56.38;99463.47;5145504;28;20047;-96
2022/03/17 09:14:07;;;;;;;12.30;7.78;;;;;;;14.21;54.86;99434.38;5141576;28;20066;-95
2022/03/17 09:16:33;;;;;;;12.07;8.25;;;;;;;14.05;56.57;99463.38;5144259;28;20043;-95
2022/03/17 09:18:59;;;;;;;13.27;7.70;;;;;;;14.05;55.88;99430.41;5139999;28;20104;-95
2022/03/17 09:21:27;;;;;;;15.38;7.65;;;;;;;14.33;56.46;99431.31;5144052;28;20043;-96
2022/03/17 09:23:53;;;;;;;13.70;8.13;;;;;;;14.60;54.71;99438.53;5146257;28;20093;-96
2022/03/17 09:26:21;;;;;;;11.63;7.35;;;;;;;14.67;54.76;99448.09;5142054;28;20069;-96
2022/03/17 09:28:51;;;;;;;13.13;7.97;;;;;;;14.64;54.29;99438.38;5144116;28;20051;-96
2022/03/17 09:31:20;;;;;;;12.98;7.60;;;;;;;15.04;53.64;99437.00;5144460;28;20036;-96
2022/03/17 09:33:46;;;;;;;13.27;8.30;;;;;;;15.13;53.18;99463.47;5143677;28;20071;-96
2022/03/17 09:36:17;;;;;;;15.57;7.75;;;;;;;14.70;53.62;99440.84;5144927;28;20054;-96
2022/03/17 09:39:39;;;;;;;11.23;7.45;;;;;;;14.28;55.99;99445.75;5141969;28;20040;-95
2022/03/17 09:41:37;;;;;;;11.98;7.93;;;;;;;14.86;54.53;99456.41;5132724;28;20061;-96
2022/03/17 09:44:04;;;;;;;12.85;6.63;;;;;;;14.95;51.39;99453.41;5140628;28;20515;-93
2022/03/17 09:46:31;;;;;;;10.27;7.57;;;;;;;14.60;53.30;99454.59;5138615;28;20504;-94
2022/03/17 09:48:58;;;;;;;8.85;5.90;;;;;;;14.80;51.63;99452.13;5120651;28;20054;-95
2022/03/17 09:51:27;;;;;;;11.30;6.45;;;;;;;14.86;51.83;99451.91;5137620;28;20071;-96
2022/03/17 09:53:56;;;;;;;12.38;7.00;;;;;;;14.84;52.64;99445.72;5145390;28;20110;-96
2022/03/17 09:56:24;;;;;;;11.27;7.15;;;;;;;15.03;52.74;99434.38;5140532;28;20047;-96
2022/03/17 09:58:52;;;;;;;11.52;7.10;;;;;;;15.00;52.97;99441.59;5141600;28;20058;-95
2022/03/17 10:01:21;;;;;;;12.48;7.07;;;;;;;15.00;52.75;99446.94;5139992;28;20457;-96
2022/03/17 10:03:48;;;;;;;10.85;7.28;;;;;;;14.63;52.84;99435.75;5127714;28;20065;-95
2022/03/17 10:06:16;;;;;;;13.90;7.82;;;;;;;14.81;51.85;99429.75;5128493;28;20519;-95
2022/03/17 10:08:48;;;;;;;12.35;7.93;;;;;;;15.11;51.53;99418.91;5128331;28;20075;-96
2022/03/17 10:11:15;;;;;;;12.93;7.30;;;;;;;15.31;49.67;99432.50;5123652;28;20500;-94
2022/03/17 10:13:45;;;;;;;15.10;6.70;;;;;;;15.39;49.07;99421.50;5127036;28;20040;-95
2022/03/17 10:16:18;;;;;;;13.35;6.88;;;;;;;15.69;49.27;99426.66;5131608;28;20044;-95
2022/03/17 10:18:56;;;;;;;11.40;6.43;;;;;;;15.87;49.28;99433.16;5127703;28;20059;-96
2022/03/17 10:21:24;;;;;;;10.48;6.82;;;;;;;15.79;49.07;99428.97;5125965;28;20040;-96
2022/03/17 10:23:52;;;;;;;15.05;7.72;;;;;;;15.57;49.95;99419.94;5128346;28;20043;-93
2022/03/17 10:26:35;;;;;;;16.73;6.43;;;;;;;15.77;50.01;99454.97;5127217;28;20051;-96
2022/03/17 10:29:14;;;;;;;12.02;6.68;;;;;;;15.71;49.58;99414.97;5120635;28;20135;-92
2022/03/17 10:31:54;;;;;;;13.65;6.80;;;;;;;15.75;48.56;99419.28;5121853;28;20036;-94
2022/03/17 10:34:21;;;;;;;10.50;6.18;;;;;;;15.84;50.05;99435.97;5126455;28;20050;-93
2022/03/17 10:36:48;;;;;;;10.80;7.00;;;;;;;15.83;49.10;99432.44;5122773;28;20216;-96
2022/03/17 10:39:14;;;;;;;11.45;6.43;;;;;;;16.00;48.80;99415.66;5123684;28;20193;-93
2022/03/17 10:41:41;;;;;;;13.57;6.75;;;;;;;16.14;48.44;99429.41;5123301;28;20035;-95
2022/03/17 10:44:10;;;;;;;14.77;6.68;;;;;;;16.17;47.91;99431.09;5121941;28;20071;-93
2022/03/17 10:46:37;;;;;;;12.25;6.35;;;;;;;16.11;47.75;99410.78;5122139;28;20127;-95
2022/03/17 10:49:07;;;;;;;13.50;6.75;;;;;;;16.00;47.63;99426.38;5120269;28;20548;-94
2022/03/17 10:51:35;;;;;;;10.20;6.53;;;;;;;15.96;48.17;99412.25;5120719;28;20396;-91
2022/03/17 10:54:03;;;;;;;16.17;6.63;;;;;;;15.93;47.44;99412.34;5120547;28;20096;-93
2022/03/17 10:56:29;;;;;;;10.70;6.35;;;;;;;16.00;48.38;99410.28;5122126;28;20044;-95
2022/03/17 10:58:56;;;;;;;12.40;6.55;;;;;;;16.14;47.94;99424.06;5121219;28;20078;-92
2022/03/17 11:01:37;;;;;;;11.65;6.47;;;;;;;16.05;47.86;99412.78;5122928;28;20043;-95
2022/03/17 11:04:05;;;;;;;12.52;6.40;;;;;;;16.10;47.45;99402.78;5123687;28;20062;-95
2022/03/17 11:06:34;;;;;;;12.38;7.07;;;;;;;16.07;48.17;99400.19;5126788;28;20043;-95
2022/03/17 11:09:01;;;;;;;13.53;7.27;;;;;;;16.19;47.11;99391.66;5123062;28;20447;-95
2022/03/17 11:11:27;;;;;;;13.40;7.40;;;;;;;16.21;47.13;99398.72;5124057;28;20288;-94
2022/03/17 11:13:56;;;;;;;16.20;7.65;;;;;;;16.38;46.44;99389.13;5123418;28;20096;-95
2022/03/17 11:16:24;;;;;;;10.57;6.72;;;;;;;16.63;47.23;99416.72;5122462;28;20501;-96
2022/03/17 11:18:54;;;;;;;20.83;11.48;;;;;;;16.60;46.80;99381.91;5126208;28;20099;-96
2022/03/17 11:21:28;;;;;;;20.90;9.60;;;;;;;16.45;46.91;99382.56;5124201;28;20048;-94
2022/03/17 11:23:57;;;;;;;17.42;10.35;;;;;;;16.60;46.62;99389.97;5123995;28;20052;-94
2022/03/17 11:26:27;;;;;;;16.15;8.82;;;;;;;16.67;46.87;99382.53;5123205;28;20035;-95
2022/03/17 11:29:02;;;;;;;15.05;7.65;;;;;;;16.68;46.76;99376.22;5124860;28;20063;-96
2022/03/17 11:31:30;;;;;;;24.77;14.30;;;;;;;16.77;46.61;99377.66;5120371;28;20039;-94
2022/03/17 11:33:59;;;;;;;18.55;10.23;;;;;;;16.95;46.67;99376.88;5125235;28;20120;-92
2022/03/17 11:36:27;;;;;;;14.25;7.65;;;;;;;17.17;45.03;99384.00;5120205;28;20051;-93
2022/03/17 11:38:56;;;;;;;13.75;8.00;;;;;;;17.22;45.46;99372.13;5123291;28;20044;-95
2022/03/17 11:41:22;;;;;;;10.00;6.65;;;;;;;17.11;45.31;99365.47;5122939;28;20047;-94
2022/03/17 11:44:04;;;;;;;16.45;6.97;;;;;;;17.15;45.58;99372.44;5100100;28;20040;-94
2022/03/17 11:46:42;;;;;;;12.77;7.15;;;;;;;16.88;46.03;99371.84;5099598;28;20040;-94
2022/03/17 11:49:25;;;;;;;15.55;6.65;;;;;;;16.68;45.68;99357.44;5102608;28;20068;-95
2022/03/17 11:52:00;;;;;;;13.75;7.40;;;;;;;16.81;45.91;99387.38;5103598;28;20104;-95